Time,TemperatureF,DewpointF,PressureIn,WindDirection,WindDirectionDegrees,WindSpeedMPH,WindSpeedGustMPH,Humidity,HourlyPrecipIn,Conditions,Clouds,dailyrainin,SoftwareType,DateUTC
2013-02-15 00:01:00,10.6,6.2,22.62,East,84,0.0,21.0,82,0.00,,,0.00,Wunderground v.1.15,2013-02-15 07:01:00,
2013-02-15 00:03:00,10.6,6.2,22.62,East,84,0.0,21.0,82,0.00,,,0.00,Wunderground v.1.15,2013-02-15 07:03:00,
2013-02-15 00:05:00,10.5,6.1,22.62,East,84,0.0,21.0,82,0.00,,,0.00,Wunderground v.1.15,2013-02-15 07:05:00,
2013-02-15 00:09:00,10.4,6.0,22.62,East,83,0.0,21.0,82,0.00,,,0.00,Wunderground v.1.15,2013-02-15 07:09:00,
2013-02-15 00:11:00,10.4,6.0,22.62,East,84,0.0,21.0,82,0.00,,,0.00,Wunderground v.1.15,2013-02-15 07:11:00,
2013-02-15 00:17:00,10.3,5.9,22.62,East,84,0.0,21.0,82,0.00,,,0.00,Wunderground v.1.15,2013-02-15 07:17:00,
2013-02-15 00:19:00,10.3,5.9,22.63,East,84,0.0,21.0,82,0.00,,,0.00,Wunderground v.1.15,2013-02-15 07:19:00,
2013-02-15 00:23:00,10.4,6.3,22.62,East,84,0.0,21.0,83,0.00,,,0.00,Wunderground v.1.15,2013-02-15 07:23:00,
2013-02-15 00:27:00,10.6,6.2,22.63,East,84,0.0,21.0,82,0.00,,,0.00,Wunderground v.1.15,2013-02-15 07:27:00,
2013-02-15 00:29:00,10.7,6.3,22.62,East,83,0.0,21.0,82,0.00,,,0.00,Wunderground v.1.15,2013-02-15 07:29:00,
2013-02-15 00:31:00,10.8,6.7,22.62,East,83,0.0,21.0,83,0.00,,,0.00,Wunderground v.1.15,2013-02-15 07:31:00,
2013-02-15 00:35:00,11.0,6.6,22.62,East,84,0.0,21.0,82,0.00,,,0.00,Wunderground v.1.15,2013-02-15 07:35:00,
2013-02-15 00:37:00,11.1,6.7,22.62,East,84,0.0,21.0,82,0.00,,,0.00,Wunderground v.1.15,2013-02-15 07:37:00,
2013-02-15 00:41:00,11.3,6.9,22.63,East,84,0.0,21.0,82,0.00,,,0.00,Wunderground v.1.15,2013-02-15 07:41:00,
2013-02-15 00:45:00,11.3,6.9,22.63,ESE,115,0.0,21.0,82,0.00,,,0.00,Wunderground v.1.15,2013-02-15 07:45:00,
2013-02-15 00:47:00,11.3,6.9,22.62,ESE,115,0.0,21.0,82,0.00,,,0.00,Wunderground v.1.15,2013-02-15 07:47:00,
2013-02-15 00:49:00,11.3,6.9,22.62,ESE,114,0.0,21.0,82,0.00,,,0.00,Wunderground v.1.15,2013-02-15 07:49:00,
2013-02-15 00:54:00,11.3,6.9,22.62,ESE,114,0.0,21.0,82,0.00,,,0.00,Wunderground v.1.15,2013-02-15 07:54:00,
2013-02-15 00:55:00,11.3,6.9,22.62,ESE,114,0.0,21.0,82,0.00,,,0.00,Wunderground v.1.15,2013-02-15 07:55:00,
2013-02-15 01:01:00,11.5,7.3,22.62,ESE,114,0.0,21.0,83,0.00,,,0.00,Wunderground v.1.15,2013-02-15 08:01:00,
2013-02-15 01:03:00,11.4,7.2,22.62,ESE,115,0.0,21.0,83,0.00,,,0.00,Wunderground v.1.15,2013-02-15 08:03:00,
2013-02-15 01:05:00,11.5,7.3,22.62,ESE,115,0.0,21.0,83,0.00,,,0.00,Wunderground v.1.15,2013-02-15 08:05:00,
2013-02-15 01:07:00,11.4,7.2,22.62,ESE,115,0.0,21.0,83,0.00,,,0.00,Wunderground v.1.15,2013-02-15 08:07:00,
2013-02-15 01:09:00,11.4,7.2,22.62,ESE,114,0.0,21.0,83,0.00,,,0.00,Wunderground v.1.15,2013-02-15 08:09:00,
2013-02-15 01:13:00,11.2,7.0,22.62,ESE,115,0.0,21.0,83,0.00,,,0.00,Wunderground v.1.15,2013-02-15 08:13:00,
2013-02-15 01:15:00,11.2,7.0,22.62,ESE,115,0.0,21.0,83,0.00,,,0.00,Wunderground v.1.15,2013-02-15 08:15:00,
2013-02-15 01:17:00,11.1,6.9,22.62,ESE,114,0.0,21.0,83,0.00,,,0.00,Wunderground v.1.15,2013-02-15 08:17:00,
2013-02-15 01:19:00,11.0,6.8,22.62,ESE,115,0.0,21.0,83,0.00,,,0.00,Wunderground v.1.15,2013-02-15 08:19:00,
2013-02-15 01:25:00,10.7,6.8,22.62,ESE,115,0.0,21.0,84,0.00,,,0.00,Wunderground v.1.15,2013-02-15 08:25:00,
2013-02-15 01:27:00,10.7,6.8,22.62,ESE,114,0.0,21.0,84,0.00,,,0.00,Wunderground v.1.15,2013-02-15 08:27:00,
2013-02-15 01:31:00,10.5,6.6,22.62,ESE,114,0.0,21.0,84,0.00,,,0.00,Wunderground v.1.15,2013-02-15 08:31:00,
2013-02-15 01:33:00,10.4,6.8,22.62,ESE,115,0.0,21.0,85,0.00,,,0.00,Wunderground v.1.15,2013-02-15 08:33:00,
2013-02-15 01:37:00,10.3,6.7,22.62,ESE,114,0.0,21.0,85,0.00,,,0.00,Wunderground v.1.15,2013-02-15 08:37:00,
2013-02-15 01:39:00,10.2,6.6,22.62,ESE,115,0.0,21.0,85,0.00,,,0.00,Wunderground v.1.15,2013-02-15 08:39:00,
2013-02-15 01:43:00,10.0,6.4,22.62,ESE,115,0.0,21.0,85,0.00,,,0.00,Wunderground v.1.15,2013-02-15 08:43:00,
2013-02-15 01:45:00,9.9,6.3,22.62,ESE,114,0.0,21.0,85,0.00,,,0.00,Wunderground v.1.15,2013-02-15 08:45:00,
2013-02-15 01:49:00,9.5,5.9,22.62,ESE,114,0.0,21.0,85,0.00,,,0.00,Wunderground v.1.15,2013-02-15 08:49:00,
2013-02-15 01:51:00,9.4,5.8,22.62,ESE,115,0.0,21.0,85,0.00,,,0.00,Wunderground v.1.15,2013-02-15 08:51:00,
2013-02-15 01:53:00,9.2,5.6,22.62,ESE,115,0.0,21.0,85,0.00,,,0.00,Wunderground v.1.15,2013-02-15 08:53:00,
2013-02-15 01:59:00,9.0,5.7,22.62,ESE,115,0.0,21.0,86,0.00,,,0.00,Wunderground v.1.15,2013-02-15 08:59:00,
2013-02-15 02:01:00,8.9,5.6,22.62,ESE,114,0.0,21.0,86,0.00,,,0.00,Wunderground v.1.15,2013-02-15 09:01:00,
2013-02-15 02:03:00,8.8,5.5,22.62,ESE,115,0.0,21.0,86,0.00,,,0.00,Wunderground v.1.15,2013-02-15 09:03:00,
2013-02-15 02:07:00,8.6,5.3,22.62,WSW,243,0.0,21.0,86,0.00,,,0.00,Wunderground v.1.15,2013-02-15 09:07:00,
2013-02-15 02:09:00,8.5,4.9,22.61,WSW,245,0.0,21.0,85,0.00,,,0.00,Wunderground v.1.15,2013-02-15 09:09:00,
2013-02-15 02:13:00,8.3,5.0,22.62,WSW,247,0.0,21.0,86,0.00,,,0.00,Wunderground v.1.15,2013-02-15 09:13:00,
2013-02-15 02:17:00,8.1,4.8,22.61,NNE,29,0.0,21.0,86,0.00,,,0.00,Wunderground v.1.15,2013-02-15 09:17:00,
2013-02-15 02:19:00,8.1,4.8,22.61,NE,53,0.0,21.0,86,0.00,,,0.00,Wunderground v.1.15,2013-02-15 09:19:00,
2013-02-15 02:21:00,8.1,4.8,22.61,NE,53,0.0,21.0,86,0.00,,,0.00,Wunderground v.1.15,2013-02-15 09:21:00,
2013-02-15 02:25:00,7.7,4.1,22.61,NE,53,0.0,21.0,85,0.00,,,0.00,Wunderground v.1.15,2013-02-15 09:25:00,
2013-02-15 02:27:00,7.6,4.0,22.61,NE,53,0.0,21.0,85,0.00,,,0.00,Wunderground v.1.15,2013-02-15 09:27:00,
2013-02-15 02:29:00,7.5,4.2,22.61,NE,53,0.0,21.0,86,0.00,,,0.00,Wunderground v.1.15,2013-02-15 09:29:00,
2013-02-15 02:33:00,7.4,4.1,22.62,NE,53,0.0,21.0,86,0.00,,,0.00,Wunderground v.1.15,2013-02-15 09:33:00,
2013-02-15 02:35:00,7.3,4.0,22.61,NE,53,0.0,21.0,86,0.00,,,0.00,Wunderground v.1.15,2013-02-15 09:35:00,
2013-02-15 02:37:00,7.3,4.0,22.61,NE,53,0.0,21.0,86,0.00,,,0.00,Wunderground v.1.15,2013-02-15 09:37:00,
2013-02-15 02:41:00,7.3,4.0,22.61,WSW,247,0.0,21.0,86,0.00,,,0.00,Wunderground v.1.15,2013-02-15 09:41:00,
2013-02-15 02:43:00,7.3,4.0,22.61,WSW,247,0.0,21.0,86,0.00,,,0.00,Wunderground v.1.15,2013-02-15 09:43:00,
2013-02-15 02:47:00,7.4,4.3,22.61,NNW,342,0.0,21.0,87,0.00,,,0.00,Wunderground v.1.15,2013-02-15 09:47:00,
2013-02-15 02:49:00,7.6,4.5,22.61,SE,134,0.0,21.0,87,0.00,,,0.00,Wunderground v.1.15,2013-02-15 09:49:00,
2013-02-15 02:53:00,7.6,4.3,22.61,SSW,210,1.0,21.0,86,0.00,,,0.00,Wunderground v.1.15,2013-02-15 09:53:00,
2013-02-15 02:55:00,7.6,4.0,22.62,SE,143,1.0,21.0,85,0.00,,,0.00,Wunderground v.1.15,2013-02-15 09:55:00,
2013-02-15 02:59:00,7.4,3.8,22.61,WNW,289,1.0,21.0,85,0.00,,,0.00,Wunderground v.1.15,2013-02-15 09:59:00,
2013-02-15 03:05:00,7.6,4.3,22.61,SE,134,1.0,21.0,86,0.00,,,0.00,Wunderground v.1.15,2013-02-15 10:05:00,
2013-02-15 03:07:00,7.6,4.3,22.61,SE,134,0.0,21.0,86,0.00,,,0.00,Wunderground v.1.15,2013-02-15 10:07:00,
2013-02-15 03:09:00,7.7,4.4,22.61,SE,134,0.0,21.0,86,0.00,,,0.00,Wunderground v.1.15,2013-02-15 10:09:00,
2013-02-15 03:11:00,7.7,4.4,22.61,SE,134,0.0,21.0,86,0.00,,,0.00,Wunderground v.1.15,2013-02-15 10:11:00,
2013-02-15 03:13:00,7.8,4.5,22.61,WSW,248,0.0,21.0,86,0.00,,,0.00,Wunderground v.1.15,2013-02-15 10:13:00,
2013-02-15 03:15:00,7.8,4.5,22.61,WSW,248,0.0,21.0,86,0.00,,,0.00,Wunderground v.1.15,2013-02-15 10:15:00,
2013-02-15 03:17:00,7.8,4.5,22.61,WSW,248,0.0,21.0,86,0.00,,,0.00,Wunderground v.1.15,2013-02-15 10:17:00,
2013-02-15 03:19:00,7.9,4.6,22.60,WSW,247,0.0,21.0,86,0.00,,,0.00,Wunderground v.1.15,2013-02-15 10:19:00,
2013-02-15 03:21:00,8.0,4.7,22.60,WSW,245,0.0,21.0,86,0.00,,,0.00,Wunderground v.1.15,2013-02-15 10:21:00,
2013-02-15 03:25:00,8.1,4.8,22.60,North,356,0.0,21.0,86,0.00,,,0.00,Wunderground v.1.15,2013-02-15 10:25:00,
2013-02-15 03:27:00,8.2,4.9,22.60,West,273,0.0,21.0,86,0.00,,,0.00,Wunderground v.1.15,2013-02-15 10:27:00,
2013-02-15 03:33:00,8.3,5.0,22.60,WSW,258,0.0,21.0,86,0.00,,,0.00,Wunderground v.1.15,2013-02-15 10:33:00,
2013-02-15 03:35:00,8.3,5.0,22.60,West,264,0.0,21.0,86,0.00,,,0.00,Wunderground v.1.15,2013-02-15 10:35:00,
2013-02-15 03:39:00,8.3,5.0,22.60,NNW,341,0.0,21.0,86,0.00,,,0.00,Wunderground v.1.15,2013-02-15 10:39:00,
2013-02-15 03:41:00,8.7,5.9,22.60,NNW,344,0.0,21.0,88,0.00,,,0.00,Wunderground v.1.15,2013-02-15 10:41:00,
2013-02-15 03:47:00,9.1,5.8,22.60,ESE,110,0.0,21.0,86,0.00,,,0.00,Wunderground v.1.15,2013-02-15 10:47:00,
2013-02-15 03:49:00,9.1,5.5,22.60,ESE,110,0.0,21.0,85,0.00,,,0.00,Wunderground v.1.15,2013-02-15 10:49:00,
2013-02-15 03:51:00,9.0,5.4,22.60,ESE,110,1.0,21.0,85,0.00,,,0.00,Wunderground v.1.15,2013-02-15 10:51:00,
2013-02-15 03:53:00,8.9,5.3,22.60,ESE,108,1.0,1.0,85,0.00,,,0.00,Wunderground v.1.15,2013-02-15 10:53:00,
2013-02-15 03:55:00,8.8,5.2,22.60,NNW,334,1.0,21.0,85,0.00,,,0.00,Wunderground v.1.15,2013-02-15 10:55:00,
2013-02-15 03:57:00,8.8,5.2,22.60,West,273,1.0,21.0,85,0.00,,,0.00,Wunderground v.1.15,2013-02-15 10:57:00,
2013-02-15 03:59:00,8.9,5.6,22.59,North,1,1.0,21.0,86,0.00,,,0.00,Wunderground v.1.15,2013-02-15 10:59:00,
2013-02-15 04:01:00,9.1,5.8,22.59,NNW,340,1.0,21.0,86,0.00,,,0.00,Wunderground v.1.15,2013-02-15 11:01:00,
2013-02-15 04:07:00,9.5,5.9,22.60,West,267,1.0,21.0,85,0.00,,,0.00,Wunderground v.1.15,2013-02-15 11:07:00,
2013-02-15 04:13:00,9.5,5.9,22.60,WSW,250,0.0,21.0,85,0.00,,,0.00,Wunderground v.1.15,2013-02-15 11:13:00,
2013-02-15 04:17:00,9.7,6.1,22.60,NE,41,1.0,21.0,85,0.00,,,0.00,Wunderground v.1.15,2013-02-15 11:17:00,
2013-02-15 04:19:00,9.6,5.7,22.60,WSW,244,1.0,21.0,84,0.00,,,0.00,Wunderground v.1.15,2013-02-15 11:19:00,
2013-02-15 04:23:00,9.4,5.5,22.60,SSW,202,1.0,1.0,84,0.00,,,0.00,Wunderground v.1.15,2013-02-15 11:23:00,
2013-02-15 04:25:00,9.2,5.3,22.60,SSW,201,1.0,21.0,84,0.00,,,0.00,Wunderground v.1.15,2013-02-15 11:25:00,
2013-02-15 04:29:00,9.1,5.2,22.60,SSW,201,0.0,21.0,84,0.00,,,0.00,Wunderground v.1.15,2013-02-15 11:29:00,
2013-02-15 04:31:00,9.1,5.2,22.60,South,184,0.0,21.0,84,0.00,,,0.00,Wunderground v.1.15,2013-02-15 11:31:00,
2013-02-15 04:35:00,8.9,5.3,22.60,NNE,33,1.0,21.0,85,0.00,,,0.00,Wunderground v.1.15,2013-02-15 11:35:00,
2013-02-15 04:37:00,9.1,5.5,22.60,ENE,57,1.0,21.0,85,0.00,,,0.00,Wunderground v.1.15,2013-02-15 11:37:00,
2013-02-15 04:41:00,9.5,5.9,22.60,NW,320,2.0,21.0,85,0.00,,,0.00,Wunderground v.1.15,2013-02-15 11:41:00,
2013-02-15 04:43:00,9.6,6.0,22.60,NW,318,2.0,2.0,85,0.00,,,0.00,Wunderground v.1.15,2013-02-15 11:43:00,
2013-02-15 04:45:00,9.7,5.8,22.60,SW,235,2.0,21.0,84,0.00,,,0.00,Wunderground v.1.15,2013-02-15 11:45:00,
2013-02-15 04:49:00,9.8,5.9,22.61,SW,221,1.0,21.0,84,0.00,,,0.00,Wunderground v.1.15,2013-02-15 11:49:00,
2013-02-15 04:55:00,10.0,6.4,22.61,NW,307,0.0,21.0,85,0.00,,,0.00,Wunderground v.1.15,2013-02-15 11:55:00,
2013-02-15 04:57:00,10.2,6.6,22.61,North,357,1.0,21.0,85,0.00,,,0.00,Wunderground v.1.15,2013-02-15 11:57:00,
2013-02-15 04:59:00,10.6,7.0,22.61,NNW,348,1.0,21.0,85,0.00,,,0.00,Wunderground v.1.15,2013-02-15 11:59:00,
2013-02-15 05:03:00,11.2,7.3,22.60,NE,53,2.0,2.0,84,0.00,,,0.00,Wunderground v.1.15,2013-02-15 12:03:00,
2013-02-15 05:05:00,11.4,7.2,22.61,WSW,240,2.0,3.0,83,0.00,,,0.00,Wunderground v.1.15,2013-02-15 12:05:00,
2013-02-15 05:07:00,11.4,7.0,22.61,WSW,249,2.0,21.0,82,0.00,,,0.00,Wunderground v.1.15,2013-02-15 12:07:00,
2013-02-15 05:09:00,11.6,7.2,22.61,NNW,339,1.0,21.0,82,0.00,,,0.00,Wunderground v.1.15,2013-02-15 12:09:00,
2013-02-15 05:13:00,11.8,7.4,22.61,SW,233,1.0,21.0,82,0.00,,,0.00,Wunderground v.1.15,2013-02-15 12:13:00,
2013-02-15 05:15:00,11.8,7.1,22.61,SW,215,2.0,21.0,81,0.00,,,0.00,Wunderground v.1.15,2013-02-15 12:15:00,
2013-02-15 05:17:00,11.7,7.0,22.61,SW,217,1.0,21.0,81,0.00,,,0.00,Wunderground v.1.15,2013-02-15 12:17:00,
2013-02-15 05:23:00,12.5,7.5,22.61,South,170,0.0,21.0,80,0.00,,,0.00,Wunderground v.1.15,2013-02-15 12:23:00,
2013-02-15 05:27:00,12.5,7.5,22.61,NW,319,0.0,21.0,80,0.00,,,0.00,Wunderground v.1.15,2013-02-15 12:27:00,
2013-02-15 05:29:00,12.6,7.6,22.61,NW,319,0.0,21.0,80,0.00,,,0.00,Wunderground v.1.15,2013-02-15 12:29:00,
2013-02-15 05:35:00,12.6,7.3,22.61,NNE,27,0.0,21.0,79,0.00,,,0.00,Wunderground v.1.15,2013-02-15 12:35:00,
2013-02-15 05:41:00,14.9,8.1,22.61,West,259,1.0,21.0,74,0.00,,,0.00,Wunderground v.1.15,2013-02-15 12:41:00,
2013-02-15 05:43:00,14.8,8.3,22.61,West,259,1.0,1.0,75,0.00,,,0.00,Wunderground v.1.15,2013-02-15 12:43:00,
2013-02-15 05:45:00,14.8,8.3,22.61,North,357,1.0,21.0,75,0.00,,,0.00,Wunderground v.1.15,2013-02-15 12:45:00,
2013-02-15 05:49:00,14.8,8.3,22.62,SSW,207,0.0,21.0,75,0.00,,,0.00,Wunderground v.1.15,2013-02-15 12:49:00,
2013-02-15 05:51:00,14.8,8.3,22.62,NNE,15,0.0,21.0,75,0.00,,,0.00,Wunderground v.1.15,2013-02-15 12:51:00,
2013-02-15 05:55:00,15.2,8.4,22.62,WNW,302,1.0,21.0,74,0.00,,,0.00,Wunderground v.1.15,2013-02-15 12:55:00,
2013-02-15 05:57:00,15.4,8.6,22.62,NNW,347,1.0,21.0,74,0.00,,,0.00,Wunderground v.1.15,2013-02-15 12:57:00,
2013-02-15 06:01:00,15.8,8.7,22.62,East,101,1.0,21.0,73,0.00,,,0.00,Wunderground v.1.15,2013-02-15 13:01:00,
2013-02-15 06:03:00,16.1,8.7,22.62,SW,226,0.0,21.0,72,0.00,,,0.00,Wunderground v.1.15,2013-02-15 13:03:00,
2013-02-15 06:07:00,17.2,9.1,22.63,SSW,193,1.0,21.0,70,0.00,,,0.00,Wunderground v.1.15,2013-02-15 13:07:00,
2013-02-15 06:09:00,17.7,8.9,22.63,SSW,207,2.0,21.0,68,0.00,,,0.00,Wunderground v.1.15,2013-02-15 13:09:00,
2013-02-15 06:11:00,18.1,9.0,22.63,ENE,74,2.0,21.0,67,0.00,,,0.00,Wunderground v.1.15,2013-02-15 13:11:00,
2013-02-15 06:13:00,18.3,8.8,22.63,West,276,2.0,2.0,66,0.00,,,0.00,Wunderground v.1.15,2013-02-15 13:13:00,
2013-02-15 06:15:00,18.4,8.6,22.63,SW,224,2.0,6.0,65,0.00,,,0.00,Wunderground v.1.15,2013-02-15 13:15:00,
2013-02-15 06:21:00,19.1,8.6,22.63,South,174,2.0,21.0,63,0.00,,,0.00,Wunderground v.1.15,2013-02-15 13:21:00,
2013-02-15 06:23:00,19.2,8.7,22.63,SW,236,2.0,21.0,63,0.00,,,0.00,Wunderground v.1.15,2013-02-15 13:23:00,
2013-02-15 06:25:00,19.2,8.3,22.63,WSW,253,2.0,21.0,62,0.00,,,0.00,Wunderground v.1.15,2013-02-15 13:25:00,
2013-02-15 06:29:00,19.3,8.4,22.63,SSW,209,2.0,21.0,62,0.00,,,0.00,Wunderground v.1.15,2013-02-15 13:29:00,
2013-02-15 06:33:00,19.6,8.3,22.63,SW,226,2.0,2.0,61,0.00,,,0.00,Wunderground v.1.15,2013-02-15 13:33:00,
2013-02-15 06:35:00,19.6,8.3,22.63,SW,224,2.0,21.0,61,0.00,,,0.00,Wunderground v.1.15,2013-02-15 13:35:00,
2013-02-15 06:37:00,19.6,8.3,22.63,East,91,2.0,21.0,61,0.00,,,0.00,Wunderground v.1.15,2013-02-15 13:37:00,
2013-02-15 06:39:00,19.5,8.2,22.63,South,169,2.0,21.0,61,0.00,,,0.00,Wunderground v.1.15,2013-02-15 13:39:00,
2013-02-15 06:45:00,19.5,8.2,22.63,WSW,242,2.0,21.0,61,0.00,,,0.00,Wunderground v.1.15,2013-02-15 13:45:00,
2013-02-15 06:47:00,19.6,8.0,22.63,SW,224,3.0,21.0,60,0.00,,,0.00,Wunderground v.1.15,2013-02-15 13:47:00,
2013-02-15 06:49:00,19.7,8.0,22.63,SW,235,3.0,21.0,60,0.00,,,0.00,Wunderground v.1.15,2013-02-15 13:49:00,
2013-02-15 06:51:00,19.6,8.3,22.63,SE,146,3.0,21.0,61,0.00,,,0.00,Wunderground v.1.15,2013-02-15 13:51:00,
2013-02-15 06:53:00,19.6,8.3,22.63,WSW,240,2.0,2.0,61,0.00,,,0.00,Wunderground v.1.15,2013-02-15 13:53:00,
2013-02-15 06:55:00,19.5,8.2,22.63,North,358,2.0,21.0,61,0.00,,,0.00,Wunderground v.1.15,2013-02-15 13:55:00,
2013-02-15 07:01:00,19.3,8.0,22.63,North,1,1.0,21.0,61,0.00,,,0.00,Wunderground v.1.15,2013-02-15 14:01:00,
2013-02-15 07:03:00,19.2,7.9,22.63,ENE,74,1.0,21.0,61,0.00,,,0.00,Wunderground v.1.15,2013-02-15 14:03:00,
2013-02-15 07:05:00,19.2,7.9,22.63,ENE,74,1.0,21.0,61,0.00,,,0.00,Wunderground v.1.15,2013-02-15 14:05:00,
2013-02-15 07:07:00,19.2,7.9,22.63,ENE,74,1.0,21.0,61,0.00,,,0.00,Wunderground v.1.15,2013-02-15 14:07:00,
2013-02-15 07:11:00,18.9,8.0,22.63,ENE,70,1.0,21.0,62,0.00,,,0.00,Wunderground v.1.15,2013-02-15 14:11:00,
2013-02-15 07:13:00,18.9,8.0,22.64,ENE,70,1.0,1.0,62,0.00,,,0.00,Wunderground v.1.15,2013-02-15 14:13:00,
2013-02-15 07:17:00,18.5,8.3,22.64,SSE,153,1.0,21.0,64,0.00,,,0.00,Wunderground v.1.15,2013-02-15 14:17:00,
2013-02-15 07:19:00,18.4,8.2,22.64,SSE,153,1.0,21.0,64,0.00,,,0.00,Wunderground v.1.15,2013-02-15 14:19:00,
2013-02-15 07:25:00,17.6,8.2,22.64,SSW,203,1.0,21.0,66,0.00,,,0.00,Wunderground v.1.15,2013-02-15 14:25:00,
2013-02-15 07:27:00,17.4,8.3,22.64,South,172,1.0,21.0,67,0.00,,,0.00,Wunderground v.1.15,2013-02-15 14:27:00,
2013-02-15 07:31:00,17.4,8.3,22.64,SE,143,1.0,21.0,67,0.00,,,0.00,Wunderground v.1.15,2013-02-15 14:31:00,
2013-02-15 07:33:00,17.4,8.3,22.64,ESE,120,1.0,21.0,67,0.00,,,0.00,Wunderground v.1.15,2013-02-15 14:33:00,
2013-02-15 07:37:00,17.6,8.5,22.64,NE,44,1.0,21.0,67,0.00,,,0.00,Wunderground v.1.15,2013-02-15 14:37:00,
2013-02-15 07:41:00,17.8,8.4,22.64,ENE,67,1.0,21.0,66,0.00,,,0.00,Wunderground v.1.15,2013-02-15 14:41:00,
2013-02-15 07:43:00,17.9,8.8,22.64,SSW,199,1.0,21.0,67,0.00,,,0.00,Wunderground v.1.15,2013-02-15 14:43:00,
2013-02-15 07:45:00,17.9,8.5,22.64,ESE,112,1.0,21.0,66,0.00,,,0.00,Wunderground v.1.15,2013-02-15 14:45:00,
2013-02-15 07:47:00,18.1,8.6,22.64,SE,129,1.0,21.0,66,0.00,,,0.00,Wunderground v.1.15,2013-02-15 14:47:00,
2013-02-15 07:49:00,18.2,8.7,22.65,North,5,1.0,21.0,66,0.00,,,0.00,Wunderground v.1.15,2013-02-15 14:49:00,
2013-02-15 07:51:00,18.3,8.5,22.65,North,355,1.0,21.0,65,0.00,,,0.00,Wunderground v.1.15,2013-02-15 14:51:00,
2013-02-15 07:53:00,18.5,8.3,22.64,ENE,77,1.0,21.0,64,0.00,,,0.00,Wunderground v.1.15,2013-02-15 14:53:00,
2013-02-15 07:57:00,18.6,8.8,22.65,NNE,15,2.0,21.0,65,0.00,,,0.00,Wunderground v.1.15,2013-02-15 14:57:00,
2013-02-15 07:59:00,18.7,8.5,22.65,ENE,57,2.0,21.0,64,0.00,,,0.00,Wunderground v.1.15,2013-02-15 14:59:00,
2013-02-15 08:05:00,19.1,7.5,22.65,NE,53,2.0,21.0,60,0.00,,,0.00,Wunderground v.1.15,2013-02-15 15:05:00,
2013-02-15 08:07:00,19.5,6.7,22.64,West,274,2.0,21.0,57,0.00,,,0.00,Wunderground v.1.15,2013-02-15 15:07:00,
2013-02-15 08:13:00,20.6,6.6,22.64,West,273,2.0,2.0,54,0.00,,,0.00,Wunderground v.1.15,2013-02-15 15:13:00,
2013-02-15 08:15:00,20.9,6.4,22.64,SSW,193,2.0,5.0,53,0.00,,,0.00,Wunderground v.1.15,2013-02-15 15:15:00,
2013-02-15 08:21:00,21.8,6.4,22.64,NNE,25,3.0,21.0,51,0.00,,,0.00,Wunderground v.1.15,2013-02-15 15:21:00,
2013-02-15 08:23:00,21.9,5.6,22.64,NE,43,3.0,21.0,49,0.00,,,0.00,Wunderground v.1.15,2013-02-15 15:23:00,
2013-02-15 08:25:00,21.9,5.6,22.64,NNW,331,4.0,21.0,49,0.00,,,0.00,Wunderground v.1.15,2013-02-15 15:25:00,
2013-02-15 08:27:00,22.1,5.8,22.64,NW,323,4.0,21.0,49,0.00,,,0.00,Wunderground v.1.15,2013-02-15 15:27:00,
2013-02-15 08:29:00,22.3,5.1,22.64,WSW,256,4.0,21.0,47,0.00,,,0.00,Wunderground v.1.15,2013-02-15 15:29:00,
2013-02-15 08:31:00,22.4,4.2,22.64,North,353,4.0,21.0,45,0.00,,,0.00,Wunderground v.1.15,2013-02-15 15:31:00,
2013-02-15 08:33:00,22.5,4.8,22.64,NW,324,4.0,4.0,46,0.00,,,0.00,Wunderground v.1.15,2013-02-15 15:33:00,
2013-02-15 08:35:00,22.7,4.5,22.64,WSW,252,4.0,21.0,45,0.00,,,0.00,Wunderground v.1.15,2013-02-15 15:35:00,
2013-02-15 08:37:00,22.9,4.2,22.64,WSW,248,5.0,21.0,44,0.00,,,0.00,Wunderground v.1.15,2013-02-15 15:37:00,
2013-02-15 08:43:00,23.6,4.8,22.64,NNW,347,3.0,21.0,44,0.00,,,0.00,Wunderground v.1.15,2013-02-15 15:43:00,
2013-02-15 08:47:00,23.8,4.0,22.64,NNW,336,3.0,21.0,42,0.00,,,0.00,Wunderground v.1.15,2013-02-15 15:47:00,
2013-02-15 08:49:00,23.8,3.5,22.64,NNE,30,4.0,21.0,41,0.00,,,0.00,Wunderground v.1.15,2013-02-15 15:49:00,
2013-02-15 08:51:00,23.9,4.1,22.64,West,263,4.0,21.0,42,0.00,,,0.00,Wunderground v.1.15,2013-02-15 15:51:00,
2013-02-15 08:53:00,24.0,4.2,22.64,SSE,159,5.0,5.0,42,0.00,,,0.00,Wunderground v.1.15,2013-02-15 15:53:00,
2013-02-15 08:59:00,24.5,4.1,22.65,SSE,160,4.0,21.0,41,0.00,,,0.00,Wunderground v.1.15,2013-02-15 15:59:00,
2013-02-15 09:01:00,24.3,3.9,22.65,NW,318,3.0,21.0,41,0.00,,,0.00,Wunderground v.1.15,2013-02-15 16:01:00,
2013-02-15 09:03:00,24.3,4.5,22.65,WSW,250,3.0,21.0,42,0.00,,,0.00,Wunderground v.1.15,2013-02-15 16:03:00,
2013-02-15 09:05:00,24.4,4.6,22.65,SSW,212,3.0,21.0,42,0.00,,,0.00,Wunderground v.1.15,2013-02-15 16:05:00,
2013-02-15 09:07:00,24.6,4.7,22.65,WSW,240,2.0,21.0,42,0.00,,,0.00,Wunderground v.1.15,2013-02-15 16:07:00,
2013-02-15 09:09:00,24.7,4.8,22.65,North,349,2.0,21.0,42,0.00,,,0.00,Wunderground v.1.15,2013-02-15 16:09:00,
2013-02-15 09:13:00,24.5,4.6,22.65,WNW,293,2.0,21.0,42,0.00,,,0.00,Wunderground v.1.15,2013-02-15 16:13:00,
2013-02-15 09:17:00,24.6,5.3,22.65,WNW,295,3.0,21.0,43,0.00,,,0.00,Wunderground v.1.15,2013-02-15 16:17:00,
2013-02-15 09:19:00,24.6,4.7,22.65,SW,222,3.0,21.0,42,0.00,,,0.00,Wunderground v.1.15,2013-02-15 16:19:00,
2013-02-15 09:25:00,24.8,4.9,22.65,SSE,150,3.0,21.0,42,0.00,,,0.00,Wunderground v.1.15,2013-02-15 16:25:00,
2013-02-15 09:27:00,25.1,4.7,22.66,ENE,71,4.0,21.0,41,0.00,,,0.00,Wunderground v.1.15,2013-02-15 16:27:00,
2013-02-15 09:29:00,25.2,4.8,22.66,NW,316,4.0,21.0,41,0.00,,,0.00,Wunderground v.1.15,2013-02-15 16:29:00,
2013-02-15 09:35:00,25.2,4.2,22.66,ESE,115,4.0,21.0,40,0.00,,,0.00,Wunderground v.1.15,2013-02-15 16:35:00,
2013-02-15 09:37:00,25.3,4.3,22.66,NNW,330,4.0,21.0,40,0.00,,,0.00,Wunderground v.1.15,2013-02-15 16:37:00,
2013-02-15 09:41:00,25.3,3.8,22.66,West,278,5.0,21.0,39,0.00,,,0.00,Wunderground v.1.15,2013-02-15 16:41:00,
2013-02-15 09:43:00,25.3,3.8,22.65,NW,316,5.0,5.0,39,0.00,,,0.00,Wunderground v.1.15,2013-02-15 16:43:00,
2013-02-15 09:47:00,25.3,3.8,22.65,WSW,238,5.0,21.0,39,0.00,,,0.00,Wunderground v.1.15,2013-02-15 16:47:00,
2013-02-15 09:49:00,25.3,3.8,22.65,NNW,336,5.0,21.0,39,0.00,,,0.00,Wunderground v.1.15,2013-02-15 16:49:00,
2013-02-15 09:51:00,25.4,3.8,22.65,WNW,297,5.0,21.0,39,0.00,,,0.00,Wunderground v.1.15,2013-02-15 16:51:00,
2013-02-15 09:53:00,25.3,3.8,22.65,SSW,212,5.0,5.0,39,0.00,,,0.00,Wunderground v.1.15,2013-02-15 16:53:00,
2013-02-15 09:59:00,25.7,3.6,22.65,West,263,5.0,21.0,38,0.00,,,0.00,Wunderground v.1.15,2013-02-15 16:59:00,
2013-02-15 10:03:00,26.0,3.2,22.65,SW,235,4.0,21.0,37,0.00,,,0.00,Wunderground v.1.15,2013-02-15 17:03:00,
2013-02-15 10:07:00,26.1,2.7,22.65,NW,319,5.0,21.0,36,0.00,,,0.00,Wunderground v.1.15,2013-02-15 17:07:00,
2013-02-15 10:09:00,26.1,3.3,22.65,NNW,345,5.0,21.0,37,0.00,,,0.00,Wunderground v.1.15,2013-02-15 17:09:00,
2013-02-15 10:13:00,25.9,3.2,22.65,NNE,32,5.0,21.0,37,0.00,,,0.00,Wunderground v.1.15,2013-02-15 17:13:00,
2013-02-15 10:15:00,26.1,3.3,22.65,WNW,287,5.0,21.0,37,0.00,,,0.00,Wunderground v.1.15,2013-02-15 17:15:00,
2013-02-15 10:21:00,26.1,2.1,22.64,WNW,302,6.0,21.0,35,0.00,,,0.00,Wunderground v.1.15,2013-02-15 17:21:00,
2013-02-15 10:23:00,26.4,3.0,22.65,NNW,346,6.0,21.0,36,0.00,,,0.00,Wunderground v.1.15,2013-02-15 17:23:00,
2013-02-15 10:29:00,26.2,3.4,22.65,West,278,7.0,21.0,37,0.00,,,0.00,Wunderground v.1.15,2013-02-15 17:29:00,
2013-02-15 10:31:00,26.4,3.6,22.65,NW,316,6.0,21.0,37,0.00,,,0.00,Wunderground v.1.15,2013-02-15 17:31:00,
2013-02-15 10:35:00,26.3,2.9,22.65,SW,228,6.0,21.0,36,0.00,,,0.00,Wunderground v.1.15,2013-02-15 17:35:00,
2013-02-15 10:37:00,26.3,2.3,22.65,West,281,6.0,21.0,35,0.00,,,0.00,Wunderground v.1.15,2013-02-15 17:37:00,
2013-02-15 10:43:00,26.6,2.6,22.65,NNW,342,7.0,7.0,35,0.00,,,0.00,Wunderground v.1.15,2013-02-15 17:43:00,
2013-02-15 10:45:00,26.6,2.0,22.65,WSW,246,7.0,19.0,34,0.00,,,0.00,Wunderground v.1.15,2013-02-15 17:45:00,
2013-02-15 10:47:00,26.5,2.5,22.65,NW,310,8.0,21.0,35,0.00,,,0.00,Wunderground v.1.15,2013-02-15 17:47:00,
2013-02-15 10:51:00,26.5,2.5,22.65,WSW,248,7.0,21.0,35,0.00,,,0.00,Wunderground v.1.15,2013-02-15 17:51:00,
2013-02-15 10:53:00,26.6,3.2,22.65,NNE,16,7.0,21.0,36,0.00,,,0.00,Wunderground v.1.15,2013-02-15 17:53:00,
2013-02-15 10:57:00,26.5,3.1,22.64,North,354,7.0,21.0,36,0.00,,,0.00,Wunderground v.1.15,2013-02-15 17:57:00,
2013-02-15 10:59:00,26.5,2.5,22.64,NNW,343,7.0,21.0,35,0.00,,,0.00,Wunderground v.1.15,2013-02-15 17:59:00,
2013-02-15 11:05:00,27.4,2.0,22.64,SSW,208,6.0,21.0,33,0.00,,,0.00,Wunderground v.1.15,2013-02-15 18:05:00,
2013-02-15 11:07:00,27.4,2.0,22.63,WSW,240,6.0,21.0,33,0.00,,,0.00,Wunderground v.1.15,2013-02-15 18:07:00,
2013-02-15 11:11:00,27.8,2.4,22.63,WNW,288,6.0,21.0,33,0.00,,,0.00,Wunderground v.1.15,2013-02-15 18:11:00,
2013-02-15 11:13:00,28.1,2.0,22.63,WSW,246,6.0,21.0,32,0.00,,,0.00,Wunderground v.1.15,2013-02-15 18:13:00,
2013-02-15 11:15:00,28.1,1.3,22.63,West,259,6.0,21.0,31,0.00,,,0.00,Wunderground v.1.15,2013-02-15 18:15:00,
2013-02-15 11:19:00,28.1,2.0,22.64,South,172,6.0,21.0,32,0.00,,,0.00,Wunderground v.1.15,2013-02-15 18:19:00,
2013-02-15 11:23:00,28.1,2.0,22.64,WNW,285,7.0,7.0,32,0.00,,,0.00,Wunderground v.1.15,2013-02-15 18:23:00,
2013-02-15 11:25:00,28.2,1.4,22.64,WSW,238,6.0,21.0,31,0.00,,,0.00,Wunderground v.1.15,2013-02-15 18:25:00,
2013-02-15 11:27:00,28.3,1.5,22.64,East,84,6.0,21.0,31,0.00,,,0.00,Wunderground v.1.15,2013-02-15 18:27:00,
2013-02-15 11:31:00,28.2,1.4,22.63,WSW,257,7.0,21.0,31,0.00,,,0.00,Wunderground v.1.15,2013-02-15 18:31:00,
2013-02-15 11:33:00,28.3,2.2,22.64,North,1,6.0,6.0,32,0.00,,,0.00,Wunderground v.1.15,2013-02-15 18:33:00,
2013-02-15 11:35:00,28.5,1.6,22.64,WNW,290,6.0,21.0,31,0.00,,,0.00,Wunderground v.1.15,2013-02-15 18:35:00,
2013-02-15 11:41:00,28.5,1.6,22.64,SSW,204,6.0,21.0,31,0.00,,,0.00,Wunderground v.1.15,2013-02-15 18:41:00,
2013-02-15 11:45:00,28.3,2.2,22.64,SW,236,8.0,9.0,32,0.00,,,0.00,Wunderground v.1.15,2013-02-15 18:45:00,
2013-02-15 11:47:00,28.1,2.0,22.64,West,270,8.0,21.0,32,0.00,,,0.00,Wunderground v.1.15,2013-02-15 18:47:00,
2013-02-15 11:49:00,28.0,1.9,22.64,SE,124,8.0,21.0,32,0.00,,,0.00,Wunderground v.1.15,2013-02-15 18:49:00,
2013-02-15 11:53:00,28.1,2.6,22.64,WNW,288,8.0,8.0,33,0.00,,,0.00,Wunderground v.1.15,2013-02-15 18:53:00,
2013-02-15 11:55:00,28.1,2.6,22.64,SW,236,7.0,12.0,33,0.00,,,0.00,Wunderground v.1.15,2013-02-15 18:55:00,
2013-02-15 11:57:00,28.1,2.6,22.64,NW,319,7.0,21.0,33,0.00,,,0.00,Wunderground v.1.15,2013-02-15 18:57:00,
2013-02-15 12:01:00,27.5,2.1,22.64,SSW,208,9.0,21.0,33,0.00,,,0.00,Wunderground v.1.15,2013-02-15 19:01:00,
2013-02-15 12:03:00,27.5,2.1,22.63,West,274,10.0,10.0,33,0.00,,,0.00,Wunderground v.1.15,2013-02-15 19:03:00,
2013-02-15 12:05:00,27.7,1.6,22.64,WNW,302,10.0,21.0,32,0.00,,,0.00,Wunderground v.1.15,2013-02-15 19:05:00,
2013-02-15 12:07:00,27.8,1.7,22.64,SW,214,9.0,21.0,32,0.00,,,0.00,Wunderground v.1.15,2013-02-15 19:07:00,
2013-02-15 12:09:00,27.6,1.5,22.64,North,8,9.0,21.0,32,0.00,,,0.00,Wunderground v.1.15,2013-02-15 19:09:00,
2013-02-15 12:11:00,27.9,1.8,22.63,SW,217,8.0,21.0,32,0.00,,,0.00,Wunderground v.1.15,2013-02-15 19:11:00,
2013-02-15 12:13:00,28.0,2.6,22.64,SW,229,8.0,8.0,33,0.00,,,0.00,Wunderground v.1.15,2013-02-15 19:13:00,
2013-02-15 12:19:00,28.3,3.5,22.64,SSW,194,7.0,21.0,34,0.00,,,0.00,Wunderground v.1.15,2013-02-15 19:19:00,
2013-02-15 12:21:00,28.3,3.5,22.64,NW,305,7.0,21.0,34,0.00,,,0.00,Wunderground v.1.15,2013-02-15 19:21:00,
2013-02-15 12:23:00,28.4,2.2,22.64,SW,235,7.0,24.0,32,0.00,,,0.00,Wunderground v.1.15,2013-02-15 19:23:00,
2013-02-15 12:25:00,28.1,2.0,22.64,SW,233,8.0,24.0,32,0.00,,,0.00,Wunderground v.1.15,2013-02-15 19:25:00,
2013-02-15 12:29:00,28.5,3.0,22.64,West,261,8.0,24.0,33,0.00,,,0.00,Wunderground v.1.15,2013-02-15 19:29:00,
2013-02-15 12:31:00,28.3,2.8,22.64,SSW,195,8.0,24.0,33,0.00,,,0.00,Wunderground v.1.15,2013-02-15 19:31:00,
2013-02-15 12:35:00,28.5,3.6,22.64,South,181,8.0,21.0,34,0.00,,,0.00,Wunderground v.1.15,2013-02-15 19:35:00,
2013-02-15 12:41:00,28.8,3.3,22.64,WNW,296,7.0,21.0,33,0.00,,,0.00,Wunderground v.1.15,2013-02-15 19:41:00,
2013-02-15 12:43:00,28.8,3.3,22.64,West,269,7.0,7.0,33,0.00,,,0.00,Wunderground v.1.15,2013-02-15 19:43:00,
2013-02-15 12:47:00,28.5,3.0,22.64,SW,231,8.0,21.0,33,0.00,,,0.00,Wunderground v.1.15,2013-02-15 19:47:00,
2013-02-15 12:49:00,28.3,2.2,22.64,WNW,284,8.0,21.0,32,0.00,,,0.00,Wunderground v.1.15,2013-02-15 19:49:00,
2013-02-15 12:53:00,28.4,2.9,22.64,SW,222,8.0,21.0,33,0.00,,,0.00,Wunderground v.1.15,2013-02-15 19:53:00,
2013-02-15 12:57:00,28.3,2.8,22.64,West,259,8.0,21.0,33,0.00,,,0.00,Wunderground v.1.15,2013-02-15 19:57:00,
2013-02-15 13:01:00,28.2,2.7,22.64,West,278,9.0,21.0,33,0.00,,,0.00,Wunderground v.1.15,2013-02-15 20:01:00,
2013-02-15 13:03:00,28.3,2.8,22.64,WSW,243,8.0,21.0,33,0.00,,,0.00,Wunderground v.1.15,2013-02-15 20:03:00,
2013-02-15 13:05:00,28.5,3.0,22.64,West,260,8.0,21.0,33,0.00,,,0.00,Wunderground v.1.15,2013-02-15 20:05:00,
2013-02-15 13:11:00,28.8,2.6,22.64,West,270,7.0,21.0,32,0.00,,,0.00,Wunderground v.1.15,2013-02-15 20:11:00,
2013-02-15 13:13:00,29.0,2.1,22.64,NW,308,6.0,6.0,31,0.00,,,0.00,Wunderground v.1.15,2013-02-15 20:13:00,
2013-02-15 13:19:00,28.7,1.1,22.64,NNW,345,7.0,21.0,30,0.00,,,0.00,Wunderground v.1.15,2013-02-15 20:19:00,
2013-02-15 13:23:00,28.5,1.6,22.63,WNW,285,9.0,9.0,31,0.00,,,0.00,Wunderground v.1.15,2013-02-15 20:23:00,
2013-02-15 13:25:00,28.4,1.6,22.64,SW,233,9.0,14.0,31,0.00,,,0.00,Wunderground v.1.15,2013-02-15 20:25:00,
2013-02-15 13:29:00,28.3,2.2,22.64,West,273,9.0,21.0,32,0.00,,,0.00,Wunderground v.1.15,2013-02-15 20:29:00,
2013-02-15 13:33:00,28.3,1.5,22.64,SW,225,9.0,21.0,31,0.00,,,0.00,Wunderground v.1.15,2013-02-15 20:33:00,
2013-02-15 13:35:00,28.2,1.4,22.64,SW,218,9.0,21.0,31,0.00,,,0.00,Wunderground v.1.15,2013-02-15 20:35:00,
2013-02-15 13:39:00,28.5,1.6,22.64,WSW,239,7.0,21.0,31,0.00,,,0.00,Wunderground v.1.15,2013-02-15 20:39:00,
2013-02-15 13:41:00,28.5,2.3,22.64,NW,316,8.0,21.0,32,0.00,,,0.00,Wunderground v.1.15,2013-02-15 20:41:00,
2013-02-15 13:45:00,29.0,2.1,22.64,WSW,250,6.0,10.0,31,0.00,,,0.00,Wunderground v.1.15,2013-02-15 20:45:00,
2013-02-15 13:47:00,29.1,2.9,22.65,West,259,6.0,21.0,32,0.00,,,0.00,Wunderground v.1.15,2013-02-15 20:47:00,
2013-02-15 13:49:00,29.1,2.2,22.64,SSW,212,6.0,21.0,31,0.00,,,0.00,Wunderground v.1.15,2013-02-15 20:49:00,
2013-02-15 13:51:00,29.1,2.9,22.64,NW,319,6.0,21.0,32,0.00,,,0.00,Wunderground v.1.15,2013-02-15 20:51:00,
2013-02-15 13:55:00,29.2,2.3,22.64,NW,313,6.0,10.0,31,0.00,,,0.00,Wunderground v.1.15,2013-02-15 20:55:00,
2013-02-15 14:01:00,29.0,1.4,22.64,West,267,6.0,21.0,30,0.00,,,0.00,Wunderground v.1.15,2013-02-15 21:01:00,
2013-02-15 14:07:00,28.8,1.2,22.64,SW,215,8.0,21.0,30,0.00,,,0.00,Wunderground v.1.15,2013-02-15 21:07:00,
2013-02-15 14:09:00,28.7,1.1,22.64,WSW,238,8.0,21.0,30,0.00,,,0.00,Wunderground v.1.15,2013-02-15 21:09:00,
2013-02-15 14:11:00,28.9,1.3,22.65,SSE,160,8.0,21.0,30,0.00,,,0.00,Wunderground v.1.15,2013-02-15 21:11:00,
2013-02-15 14:13:00,29.0,0.7,22.64,West,280,8.0,8.0,29,0.00,,,0.00,Wunderground v.1.15,2013-02-15 21:13:00,
2013-02-15 14:15:00,29.0,0.7,22.64,South,176,6.0,21.0,29,0.00,,,0.00,Wunderground v.1.15,2013-02-15 21:15:00,
2013-02-15 14:17:00,29.2,0.8,22.64,WSW,239,6.0,21.0,29,0.00,,,0.00,Wunderground v.1.15,2013-02-15 21:17:00,
2013-02-15 14:19:00,29.3,0.9,22.64,West,267,6.0,21.0,29,0.00,,,0.00,Wunderground v.1.15,2013-02-15 21:19:00,
2013-02-15 14:23:00,29.3,1.6,22.64,West,259,6.0,6.0,30,0.00,,,0.00,Wunderground v.1.15,2013-02-15 21:23:00,
2013-02-15 14:27:00,29.6,1.2,22.64,South,169,7.0,21.0,29,0.00,,,0.00,Wunderground v.1.15,2013-02-15 21:27:00,
2013-02-15 14:29:00,29.6,1.2,22.64,NW,321,6.0,21.0,29,0.00,,,0.00,Wunderground v.1.15,2013-02-15 21:29:00,
2013-02-15 14:33:00,29.7,2.0,22.64,WNW,291,6.0,6.0,30,0.00,,,0.00,Wunderground v.1.15,2013-02-15 21:33:00,
2013-02-15 14:39:00,29.7,1.3,22.64,SE,133,6.0,21.0,29,0.00,,,0.00,Wunderground v.1.15,2013-02-15 21:39:00,
2013-02-15 14:41:00,29.5,1.1,22.64,SW,228,7.0,21.0,29,0.00,,,0.00,Wunderground v.1.15,2013-02-15 21:41:00,
2013-02-15 14:43:00,29.4,1.0,22.64,WSW,238,6.0,21.0,29,0.00,,,0.00,Wunderground v.1.15,2013-02-15 21:43:00,
2013-02-15 14:45:00,29.3,0.2,22.64,West,277,7.0,21.0,28,0.00,,,0.00,Wunderground v.1.15,2013-02-15 21:45:00,
2013-02-15 14:49:00,29.3,0.2,22.64,SW,217,8.0,21.0,28,0.00,,,0.00,Wunderground v.1.15,2013-02-15 21:49:00,
2013-02-15 14:51:00,29.3,0.2,22.64,WSW,243,7.0,21.0,28,0.00,,,0.00,Wunderground v.1.15,2013-02-15 21:51:00,
2013-02-15 14:55:00,29.5,0.3,22.64,WSW,245,7.0,14.0,28,0.00,,,0.00,Wunderground v.1.15,2013-02-15 21:55:00,
2013-02-15 14:57:00,29.5,0.3,22.64,NNW,332,7.0,21.0,28,0.00,,,0.00,Wunderground v.1.15,2013-02-15 21:57:00,
2013-02-15 14:59:00,29.5,0.3,22.64,WSW,238,7.0,21.0,28,0.00,,,0.00,Wunderground v.1.15,2013-02-15 21:59:00,
2013-02-15 15:03:00,29.6,1.2,22.65,SW,236,7.0,21.0,29,0.00,,,0.00,Wunderground v.1.15,2013-02-15 22:03:00,
2013-02-15 15:05:00,29.7,0.5,22.65,SSW,210,6.0,21.0,28,0.00,,,0.00,Wunderground v.1.15,2013-02-15 22:05:00,
2013-02-15 15:11:00,29.5,0.3,22.65,WSW,255,6.0,21.0,28,0.00,,,0.00,Wunderground v.1.15,2013-02-15 22:11:00,
2013-02-15 15:17:00,29.6,0.4,22.65,NE,51,6.0,21.0,28,0.00,,,0.00,Wunderground v.1.15,2013-02-15 22:17:00,
2013-02-15 15:19:00,29.6,0.4,22.65,NW,313,5.0,21.0,28,0.00,,,0.00,Wunderground v.1.15,2013-02-15 22:19:00,
2013-02-15 15:21:00,29.7,0.5,22.65,WSW,257,6.0,21.0,28,0.00,,,0.00,Wunderground v.1.15,2013-02-15 22:21:00,
2013-02-15 15:23:00,29.4,1.0,22.65,NW,308,7.0,7.0,29,0.00,,,0.00,Wunderground v.1.15,2013-02-15 22:23:00,
2013-02-15 15:25:00,29.4,1.0,22.65,WSW,250,6.0,21.0,29,0.00,,,0.00,Wunderground v.1.15,2013-02-15 22:25:00,
2013-02-15 15:27:00,29.6,1.2,22.65,West,262,6.0,21.0,29,0.00,,,0.00,Wunderground v.1.15,2013-02-15 22:27:00,
2013-02-15 15:29:00,29.6,1.2,22.65,West,269,5.0,21.0,29,0.00,,,0.00,Wunderground v.1.15,2013-02-15 22:29:00,
2013-02-15 15:31:00,29.7,0.5,22.65,NW,321,6.0,21.0,28,0.00,,,0.00,Wunderground v.1.15,2013-02-15 22:31:00,
2013-02-15 15:35:00,29.4,0.3,22.65,WSW,257,5.0,21.0,28,0.00,,,0.00,Wunderground v.1.15,2013-02-15 22:35:00,
2013-02-15 15:37:00,29.4,0.3,22.65,WSW,237,5.0,21.0,28,0.00,,,0.00,Wunderground v.1.15,2013-02-15 22:37:00,
2013-02-15 15:41:00,29.7,0.5,22.65,NNW,348,5.0,21.0,28,0.00,,,0.00,Wunderground v.1.15,2013-02-15 22:41:00,
2013-02-15 15:43:00,29.8,0.6,22.65,West,270,5.0,21.0,28,0.00,,,0.00,Wunderground v.1.15,2013-02-15 22:43:00,
2013-02-15 15:47:00,29.8,0.6,22.65,SW,224,5.0,21.0,28,0.00,,,0.00,Wunderground v.1.15,2013-02-15 22:47:00,
2013-02-15 15:49:00,29.8,0.6,22.65,SW,217,5.0,21.0,28,0.00,,,0.00,Wunderground v.1.15,2013-02-15 22:49:00,
2013-02-15 15:55:00,29.6,0.4,22.65,SE,140,6.0,21.0,28,0.00,,,0.00,Wunderground v.1.15,2013-02-15 22:55:00,
2013-02-15 16:01:00,29.6,0.4,22.65,South,176,6.0,21.0,28,0.00,,,0.00,Wunderground v.1.15,2013-02-15 23:01:00,
2013-02-15 16:05:00,29.0,2.1,22.65,SW,224,7.0,21.0,31,0.00,,,0.00,Wunderground v.1.15,2013-02-15 23:05:00,
2013-02-15 16:07:00,28.8,1.9,22.65,SSW,210,8.0,21.0,31,0.00,,,0.00,Wunderground v.1.15,2013-02-15 23:07:00,
2013-02-15 16:09:00,28.7,1.8,22.65,West,270,9.0,21.0,31,0.00,,,0.00,Wunderground v.1.15,2013-02-15 23:09:00,
2013-02-15 16:11:00,28.6,1.7,22.65,WSW,245,9.0,21.0,31,0.00,,,0.00,Wunderground v.1.15,2013-02-15 23:11:00,
2013-02-15 16:15:00,28.5,2.3,22.65,West,259,9.0,21.0,32,0.00,,,0.00,Wunderground v.1.15,2013-02-15 23:15:00,
2013-02-15 16:17:00,28.5,2.3,22.65,SW,229,8.0,21.0,32,0.00,,,0.00,Wunderground v.1.15,2013-02-15 23:17:00,
2013-02-15 16:21:00,28.5,2.3,22.64,WSW,243,8.0,21.0,32,0.00,,,0.00,Wunderground v.1.15,2013-02-15 23:21:00,
2013-02-15 16:23:00,28.5,1.6,22.64,South,177,8.0,21.0,31,0.00,,,0.00,Wunderground v.1.15,2013-02-15 23:23:00,
2013-02-15 16:25:00,28.6,1.7,22.64,WSW,243,7.0,21.0,31,0.00,,,0.00,Wunderground v.1.15,2013-02-15 23:25:00,
2013-02-15 16:29:00,28.6,1.7,22.64,SW,231,6.0,21.0,31,0.00,,,0.00,Wunderground v.1.15,2013-02-15 23:29:00,
2013-02-15 16:33:00,28.6,1.7,22.65,NE,47,6.0,21.0,31,0.00,,,0.00,Wunderground v.1.15,2013-02-15 23:33:00,
2013-02-15 16:35:00,28.7,1.8,22.64,SSW,212,5.0,21.0,31,0.00,,,0.00,Wunderground v.1.15,2013-02-15 23:35:00,
2013-02-15 16:41:00,28.8,1.2,22.64,WSW,255,5.0,21.0,30,0.00,,,0.00,Wunderground v.1.15,2013-02-15 23:41:00,
2013-02-15 16:43:00,28.8,1.2,22.64,NNE,18,5.0,5.0,30,0.00,,,0.00,Wunderground v.1.15,2013-02-15 23:43:00,
2013-02-15 16:49:00,27.9,1.1,22.65,NNW,347,4.0,21.0,31,0.00,,,0.00,Wunderground v.1.15,2013-02-15 23:49:00,
2013-02-15 16:51:00,27.6,1.5,22.65,SW,221,4.0,21.0,32,0.00,,,0.00,Wunderground v.1.15,2013-02-15 23:51:00,
2013-02-15 16:55:00,27.0,1.7,22.65,SW,226,5.0,21.0,33,0.00,,,0.00,Wunderground v.1.15,2013-02-15 23:55:00,
2013-02-15 16:57:00,26.9,1.6,22.64,West,274,5.0,21.0,33,0.00,,,0.00,Wunderground v.1.15,2013-02-15 23:57:00,
2013-02-15 17:01:00,26.6,2.0,22.64,WSW,243,5.0,21.0,34,0.00,,,0.00,Wunderground v.1.15,2013-02-16 00:01:00,
2013-02-15 17:05:00,26.5,1.9,22.65,NNE,15,5.0,6.0,34,0.00,,,0.00,Wunderground v.1.15,2013-02-16 00:05:00,
2013-02-15 17:07:00,26.4,1.8,22.65,SSE,149,5.0,21.0,34,0.00,,,0.00,Wunderground v.1.15,2013-02-16 00:07:00,
2013-02-15 17:11:00,26.2,1.6,22.64,SSE,152,4.0,21.0,34,0.00,,,0.00,Wunderground v.1.15,2013-02-16 00:11:00,
2013-02-15 17:13:00,26.1,1.5,22.65,NNE,22,4.0,4.0,34,0.00,,,0.00,Wunderground v.1.15,2013-02-16 00:13:00,
2013-02-15 17:19:00,25.9,1.3,22.65,WSW,250,5.0,21.0,34,0.00,,,0.00,Wunderground v.1.15,2013-02-16 00:19:00,
2013-02-15 17:21:00,25.9,1.3,22.65,SSW,208,6.0,21.0,34,0.00,,,0.00,Wunderground v.1.15,2013-02-16 00:21:00,
2013-02-15 17:25:00,25.8,1.9,22.65,SSE,161,7.0,21.0,35,0.00,,,0.00,Wunderground v.1.15,2013-02-16 00:25:00,
2013-02-15 17:28:00,25.7,1.8,22.65,South,183,7.0,21.0,35,0.00,,,0.00,Wunderground v.1.15,2013-02-16 00:28:00,
2013-02-15 17:29:00,25.6,1.7,22.65,WSW,254,7.0,21.0,35,0.00,,,0.00,Wunderground v.1.15,2013-02-16 00:29:00,
2013-02-15 17:33:00,25.4,2.1,22.65,SSW,205,5.0,21.0,36,0.00,,,0.00,Wunderground v.1.15,2013-02-16 00:33:00,
2013-02-15 17:35:00,25.3,2.0,22.65,South,172,5.0,21.0,36,0.00,,,0.00,Wunderground v.1.15,2013-02-16 00:35:00,
2013-02-15 17:37:00,25.3,1.4,22.64,SSW,207,4.0,21.0,35,0.00,,,0.00,Wunderground v.1.15,2013-02-16 00:37:00,
2013-02-15 17:39:00,25.3,1.4,22.65,SW,229,4.0,21.0,35,0.00,,,0.00,Wunderground v.1.15,2013-02-16 00:39:00,
2013-02-15 17:41:00,25.3,1.4,22.64,South,183,5.0,21.0,35,0.00,,,0.00,Wunderground v.1.15,2013-02-16 00:41:00,
2013-02-15 17:47:00,25.3,1.4,22.64,SW,224,5.0,21.0,35,0.00,,,0.00,Wunderground v.1.15,2013-02-16 00:47:00,
2013-02-15 17:49:00,25.4,0.9,22.64,SSW,211,6.0,21.0,34,0.00,,,0.00,Wunderground v.1.15,2013-02-16 00:49:00,
2013-02-15 17:51:00,25.5,1.0,22.64,SW,225,7.0,21.0,34,0.00,,,0.00,Wunderground v.1.15,2013-02-16 00:51:00,
2013-02-15 17:53:00,25.6,1.1,22.64,SSE,150,7.0,7.0,34,0.00,,,0.00,Wunderground v.1.15,2013-02-16 00:53:00,
2013-02-15 17:57:00,25.7,1.2,22.64,SW,221,8.0,9.0,34,0.00,,,0.00,Wunderground v.1.15,2013-02-16 00:57:00,
2013-02-15 17:59:00,25.7,1.2,22.64,WSW,240,9.0,14.0,34,0.00,,,0.00,Wunderground v.1.15,2013-02-16 00:59:00,
2013-02-15 18:01:00,25.7,1.2,22.65,South,181,9.0,21.0,34,0.00,,,0.00,Wunderground v.1.15,2013-02-16 01:01:00,
2013-02-15 18:05:00,25.6,1.1,22.64,SE,132,9.0,21.0,34,0.00,,,0.00,Wunderground v.1.15,2013-02-16 01:05:00,
2013-02-15 18:11:00,25.2,1.3,22.65,SW,235,6.0,21.0,35,0.00,,,0.00,Wunderground v.1.15,2013-02-16 01:11:00,
2013-02-15 18:13:00,25.1,1.2,22.65,SSE,153,5.0,21.0,35,0.00,,,0.00,Wunderground v.1.15,2013-02-16 01:13:00,
2013-02-15 18:17:00,24.8,1.6,22.65,SW,236,5.0,21.0,36,0.00,,,0.00,Wunderground v.1.15,2013-02-16 01:17:00,
2013-02-15 18:19:00,24.9,1.7,22.65,South,173,5.0,21.0,36,0.00,,,0.00,Wunderground v.1.15,2013-02-16 01:19:00,
2013-02-15 18:23:00,24.9,1.7,22.64,WSW,247,7.0,21.0,36,0.00,,,0.00,Wunderground v.1.15,2013-02-16 01:23:00,
2013-02-15 18:25:00,24.8,2.2,22.65,SE,124,8.0,21.0,37,0.00,,,0.00,Wunderground v.1.15,2013-02-16 01:25:00,
2013-02-15 18:29:00,24.5,2.5,22.66,South,191,7.0,21.0,38,0.00,,,0.00,Wunderground v.1.15,2013-02-16 01:29:00,
2013-02-15 18:31:00,24.4,2.4,22.66,SSW,197,6.0,21.0,38,0.00,,,0.00,Wunderground v.1.15,2013-02-16 01:31:00,
2013-02-15 18:35:00,24.4,2.4,22.65,SSE,149,5.0,21.0,38,0.00,,,0.00,Wunderground v.1.15,2013-02-16 01:35:00,
2013-02-15 18:39:00,24.3,2.3,22.66,South,176,4.0,21.0,38,0.00,,,0.00,Wunderground v.1.15,2013-02-16 01:39:00,
2013-02-15 18:41:00,24.4,1.8,22.66,SSE,155,5.0,21.0,37,0.00,,,0.00,Wunderground v.1.15,2013-02-16 01:41:00,
2013-02-15 18:45:00,24.4,1.8,22.66,SSW,200,6.0,21.0,37,0.00,,,0.00,Wunderground v.1.15,2013-02-16 01:45:00,
2013-02-15 18:51:00,24.5,1.9,22.66,SSE,163,6.0,21.0,37,0.00,,,0.00,Wunderground v.1.15,2013-02-16 01:51:00,
2013-02-15 18:53:00,24.6,2.0,22.66,South,169,7.0,7.0,37,0.00,,,0.00,Wunderground v.1.15,2013-02-16 01:53:00,
2013-02-15 18:55:00,24.7,2.1,22.66,SSW,204,7.0,21.0,37,0.00,,,0.00,Wunderground v.1.15,2013-02-16 01:55:00,
2013-02-15 18:59:00,24.9,2.3,22.65,SW,217,7.0,21.0,37,0.00,,,0.00,Wunderground v.1.15,2013-02-16 01:59:00,
2013-02-15 19:01:00,24.9,2.3,22.66,SW,235,6.0,21.0,37,0.00,,,0.00,Wunderground v.1.15,2013-02-16 02:01:00,
2013-02-15 19:07:00,25.0,2.9,22.66,SE,146,5.0,21.0,38,0.00,,,0.00,Wunderground v.1.15,2013-02-16 02:07:00,
2013-02-15 19:09:00,24.9,2.3,22.66,WSW,250,4.0,21.0,37,0.00,,,0.00,Wunderground v.1.15,2013-02-16 02:09:00,
2013-02-15 19:11:00,25.0,2.3,22.66,SSW,201,4.0,21.0,37,0.00,,,0.00,Wunderground v.1.15,2013-02-16 02:11:00,
2013-02-15 19:17:00,24.9,3.4,22.66,SW,217,5.0,21.0,39,0.00,,,0.00,Wunderground v.1.15,2013-02-16 02:17:00,
2013-02-15 19:21:00,24.7,3.8,22.66,South,169,6.0,21.0,40,0.00,,,0.00,Wunderground v.1.15,2013-02-16 02:21:00,
2013-02-15 19:23:00,24.7,4.3,22.66,West,266,5.0,5.0,41,0.00,,,0.00,Wunderground v.1.15,2013-02-16 02:23:00,
2013-02-15 19:27:00,24.6,3.7,22.66,WSW,254,6.0,21.0,40,0.00,,,0.00,Wunderground v.1.15,2013-02-16 02:27:00,
2013-02-15 19:29:00,24.5,4.1,22.66,SSW,204,5.0,21.0,41,0.00,,,0.00,Wunderground v.1.15,2013-02-16 02:29:00,
2013-02-15 19:31:00,24.4,4.6,22.66,SW,219,5.0,21.0,42,0.00,,,0.00,Wunderground v.1.15,2013-02-16 02:31:00,
2013-02-15 19:35:00,24.3,4.5,22.66,SSW,207,7.0,8.0,42,0.00,,,0.00,Wunderground v.1.15,2013-02-16 02:35:00,
2013-02-15 19:41:00,24.2,5.4,22.67,West,271,8.0,21.0,44,0.00,,,0.00,Wunderground v.1.15,2013-02-16 02:41:00,
2013-02-15 19:43:00,24.2,4.9,22.67,SW,225,8.0,8.0,43,0.00,,,0.00,Wunderground v.1.15,2013-02-16 02:43:00,
2013-02-15 19:45:00,24.2,4.9,22.66,SW,215,7.0,21.0,43,0.00,,,0.00,Wunderground v.1.15,2013-02-16 02:45:00,
2013-02-15 19:47:00,24.2,5.4,22.66,SSW,204,7.0,21.0,44,0.00,,,0.00,Wunderground v.1.15,2013-02-16 02:47:00,
2013-02-15 19:53:00,24.1,5.3,22.67,SW,235,7.0,7.0,44,0.00,,,0.00,Wunderground v.1.15,2013-02-16 02:53:00,
2013-02-15 19:55:00,24.0,5.7,22.67,SW,233,7.0,21.0,45,0.00,,,0.00,Wunderground v.1.15,2013-02-16 02:55:00,
2013-02-15 20:01:00,24.2,5.4,22.66,SSW,212,8.0,21.0,44,0.00,,,0.00,Wunderground v.1.15,2013-02-16 03:01:00,
2013-02-15 20:03:00,24.2,5.4,22.66,South,191,9.0,9.0,44,0.00,,,0.00,Wunderground v.1.15,2013-02-16 03:03:00,
2013-02-15 20:09:00,24.2,5.4,22.66,WSW,240,8.0,21.0,44,0.00,,,0.00,Wunderground v.1.15,2013-02-16 03:09:00,
2013-02-15 20:13:00,24.2,5.4,22.66,WSW,256,7.0,21.0,44,0.00,,,0.00,Wunderground v.1.15,2013-02-16 03:13:00,
2013-02-15 20:17:00,24.3,5.0,22.66,WSW,240,7.0,21.0,43,0.00,,,0.00,Wunderground v.1.15,2013-02-16 03:17:00,
2013-02-15 20:19:00,24.5,5.2,22.66,SSW,198,7.0,21.0,43,0.00,,,0.00,Wunderground v.1.15,2013-02-16 03:19:00,
2013-02-15 20:21:00,24.6,5.3,22.66,South,173,7.0,21.0,43,0.00,,,0.00,Wunderground v.1.15,2013-02-16 03:21:00,
2013-02-15 20:25:00,24.5,5.7,22.66,South,181,7.0,21.0,44,0.00,,,0.00,Wunderground v.1.15,2013-02-16 03:25:00,
2013-02-15 20:29:00,24.4,5.6,22.66,SSW,201,6.0,21.0,44,0.00,,,0.00,Wunderground v.1.15,2013-02-16 03:29:00,
2013-02-15 20:33:00,24.4,5.6,22.66,SSW,198,6.0,21.0,44,0.00,,,0.00,Wunderground v.1.15,2013-02-16 03:33:00,
2013-02-15 20:35:00,24.5,5.7,22.66,SW,235,6.0,21.0,44,0.00,,,0.00,Wunderground v.1.15,2013-02-16 03:35:00,
2013-02-15 20:39:00,24.5,6.2,22.67,West,271,7.0,21.0,45,0.00,,,0.00,Wunderground v.1.15,2013-02-16 03:39:00,
2013-02-15 20:41:00,24.5,5.7,22.66,SSW,210,8.0,21.0,44,0.00,,,0.00,Wunderground v.1.15,2013-02-16 03:41:00,
2013-02-15 20:43:00,24.6,5.8,22.66,WSW,239,8.0,21.0,44,0.00,,,0.00,Wunderground v.1.15,2013-02-16 03:43:00,
2013-02-15 20:45:00,24.7,6.3,22.66,SSW,204,8.0,21.0,45,0.00,,,0.00,Wunderground v.1.15,2013-02-16 03:45:00,
2013-02-15 20:47:00,24.7,6.3,22.66,SW,221,8.0,21.0,45,0.00,,,0.00,Wunderground v.1.15,2013-02-16 03:47:00,
2013-02-15 20:53:00,24.7,6.8,22.66,WSW,238,10.0,10.0,46,0.00,,,0.00,Wunderground v.1.15,2013-02-16 03:53:00,
2013-02-15 20:59:00,24.8,6.9,22.66,WSW,250,10.0,21.0,46,0.00,,,0.00,Wunderground v.1.15,2013-02-16 03:59:00,
2013-02-15 21:01:00,24.8,6.9,22.66,West,262,9.0,21.0,46,0.00,,,0.00,Wunderground v.1.15,2013-02-16 04:01:00,
2013-02-15 21:03:00,24.8,6.9,22.66,SW,232,9.0,21.0,46,0.00,,,0.00,Wunderground v.1.15,2013-02-16 04:03:00,
2013-02-15 21:07:00,25.0,7.1,22.65,SE,139,9.0,21.0,46,0.00,,,0.00,Wunderground v.1.15,2013-02-16 04:07:00,
2013-02-15 21:09:00,25.0,7.1,22.65,WSW,253,10.0,21.0,46,0.00,,,0.00,Wunderground v.1.15,2013-02-16 04:09:00,
2013-02-15 21:13:00,25.1,7.2,22.65,SW,225,10.0,10.0,46,0.00,,,0.00,Wunderground v.1.15,2013-02-16 04:13:00,
2013-02-15 21:15:00,25.1,7.2,22.65,WSW,246,9.0,21.0,46,0.00,,,0.00,Wunderground v.1.15,2013-02-16 04:15:00,
2013-02-15 21:21:00,25.3,7.4,22.65,WSW,246,9.0,21.0,46,0.00,,,0.00,Wunderground v.1.15,2013-02-16 04:21:00,
2013-02-15 21:23:00,25.4,7.5,22.65,SSW,212,8.0,8.0,46,0.00,,,0.00,Wunderground v.1.15,2013-02-16 04:23:00,
2013-02-15 21:27:00,25.4,7.9,22.65,SW,222,9.0,21.0,47,0.00,,,0.00,Wunderground v.1.15,2013-02-16 04:27:00,
2013-02-15 21:31:00,25.6,8.1,22.65,West,259,7.0,21.0,47,0.00,,,0.00,Wunderground v.1.15,2013-02-16 04:31:00,
2013-02-15 21:33:00,25.8,8.3,22.65,South,187,8.0,21.0,47,0.00,,,0.00,Wunderground v.1.15,2013-02-16 04:33:00,
2013-02-15 21:39:00,26.1,8.6,22.65,SSW,207,12.0,21.0,47,0.00,,,0.00,Wunderground v.1.15,2013-02-16 04:39:00,
2013-02-15 21:41:00,26.0,8.5,22.65,SSW,210,11.0,21.0,47,0.00,,,0.00,Wunderground v.1.15,2013-02-16 04:41:00,
2013-02-15 21:45:00,26.1,8.6,22.65,SW,226,11.0,21.0,47,0.00,,,0.00,Wunderground v.1.15,2013-02-16 04:45:00,
2013-02-15 21:47:00,26.1,8.6,22.65,SW,225,11.0,21.0,47,0.00,,,0.00,Wunderground v.1.15,2013-02-16 04:47:00,
2013-02-15 21:51:00,26.0,8.5,22.65,SW,223,11.0,21.0,47,0.00,,,0.00,Wunderground v.1.15,2013-02-16 04:51:00,
2013-02-15 21:53:00,26.0,8.5,22.65,West,271,11.0,21.0,47,0.00,,,0.00,Wunderground v.1.15,2013-02-16 04:53:00,
2013-02-15 21:59:00,25.9,8.9,22.65,WSW,249,12.0,21.0,48,0.00,,,0.00,Wunderground v.1.15,2013-02-16 04:59:00,
2013-02-15 22:01:00,26.0,8.5,22.65,WSW,245,13.0,21.0,47,0.00,,,0.00,Wunderground v.1.15,2013-02-16 05:01:00,
2013-02-15 22:03:00,26.1,8.6,22.65,SW,221,13.0,13.0,47,0.00,,,0.00,Wunderground v.1.15,2013-02-16 05:03:00,
2013-02-15 22:07:00,26.2,8.7,22.65,WSW,238,13.0,21.0,47,0.00,,,0.00,Wunderground v.1.15,2013-02-16 05:07:00,
2013-02-15 22:09:00,26.2,8.7,22.66,SSW,208,12.0,21.0,47,0.00,,,0.00,Wunderground v.1.15,2013-02-16 05:09:00,
2013-02-15 22:13:00,26.3,8.8,22.65,WSW,254,11.0,11.0,47,0.00,,,0.00,Wunderground v.1.15,2013-02-16 05:13:00,
2013-02-15 22:15:00,26.3,8.8,22.65,SW,233,11.0,12.0,47,0.00,,,0.00,Wunderground v.1.15,2013-02-16 05:15:00,
2013-02-15 22:21:00,26.2,8.7,22.65,SSW,208,10.0,21.0,47,0.00,,,0.00,Wunderground v.1.15,2013-02-16 05:21:00,
2013-02-15 22:23:00,26.3,8.8,22.65,SSW,210,10.0,10.0,47,0.00,,,0.00,Wunderground v.1.15,2013-02-16 05:23:00,
2013-02-15 22:27:00,26.4,8.9,22.65,SSW,197,8.0,21.0,47,0.00,,,0.00,Wunderground v.1.15,2013-02-16 05:27:00,
2013-02-15 22:29:00,26.4,9.3,22.65,WSW,257,9.0,21.0,48,0.00,,,0.00,Wunderground v.1.15,2013-02-16 05:29:00,
2013-02-15 22:33:00,26.5,9.0,22.65,WSW,253,8.0,8.0,47,0.00,,,0.00,Wunderground v.1.15,2013-02-16 05:33:00,
2013-02-15 22:37:00,26.4,9.3,22.65,WSW,249,9.0,11.0,48,0.00,,,0.00,Wunderground v.1.15,2013-02-16 05:37:00,
2013-02-15 22:41:00,26.5,9.4,22.65,SW,225,9.0,21.0,48,0.00,,,0.00,Wunderground v.1.15,2013-02-16 05:41:00,
2013-02-15 22:45:00,26.6,9.5,22.65,SW,217,10.0,21.0,48,0.00,,,0.00,Wunderground v.1.15,2013-02-16 05:45:00,
2013-02-15 22:47:00,26.7,9.1,22.65,SW,214,10.0,21.0,47,0.00,,,0.00,Wunderground v.1.15,2013-02-16 05:47:00,
2013-02-15 22:53:00,27.0,8.9,22.65,SW,232,10.0,10.0,46,0.00,,,0.00,Wunderground v.1.15,2013-02-16 05:53:00,
2013-02-15 22:55:00,27.0,8.9,22.65,SSW,210,9.0,21.0,46,0.00,,,0.00,Wunderground v.1.15,2013-02-16 05:55:00,
2013-02-15 22:57:00,27.0,8.9,22.65,SW,217,9.0,21.0,46,0.00,,,0.00,Wunderground v.1.15,2013-02-16 05:57:00,
2013-02-15 23:01:00,27.1,9.0,22.65,WSW,256,8.0,21.0,46,0.00,,,0.00,Wunderground v.1.15,2013-02-16 06:01:00,
2013-02-15 23:03:00,27.1,9.0,22.65,SSE,153,8.0,8.0,46,0.00,,,0.00,Wunderground v.1.15,2013-02-16 06:03:00,
2013-02-15 23:07:00,27.2,9.1,22.65,SW,231,8.0,21.0,46,0.00,,,0.00,Wunderground v.1.15,2013-02-16 06:07:00,
2013-02-15 23:13:00,27.3,8.7,22.64,West,269,7.0,7.0,45,0.00,,,0.00,Wunderground v.1.15,2013-02-16 06:13:00,
2013-02-15 23:15:00,27.4,8.8,22.64,West,273,7.0,21.0,45,0.00,,,0.00,Wunderground v.1.15,2013-02-16 06:15:00,
2013-02-15 23:17:00,27.5,8.9,22.64,WSW,243,8.0,21.0,45,0.00,,,0.00,Wunderground v.1.15,2013-02-16 06:17:00,
2013-02-15 23:21:00,27.5,8.4,22.64,SSW,208,9.0,21.0,44,0.00,,,0.00,Wunderground v.1.15,2013-02-16 06:21:00,
2013-02-15 23:23:00,27.6,8.5,22.64,WSW,245,9.0,21.0,44,0.00,,,0.00,Wunderground v.1.15,2013-02-16 06:23:00,
2013-02-15 23:27:00,27.6,8.5,22.64,SE,141,10.0,21.0,44,0.00,,,0.00,Wunderground v.1.15,2013-02-16 06:27:00,
2013-02-15 23:29:00,27.6,8.5,22.63,South,179,10.0,21.0,44,0.00,,,0.00,Wunderground v.1.15,2013-02-16 06:29:00,
2013-02-15 23:33:00,27.6,8.5,22.63,SSW,204,10.0,21.0,44,0.00,,,0.00,Wunderground v.1.15,2013-02-16 06:33:00,
2013-02-15 23:37:00,27.5,8.4,22.63,SW,233,8.0,21.0,44,0.00,,,0.00,Wunderground v.1.15,2013-02-16 06:37:00,
2013-02-15 23:39:00,27.6,8.5,22.63,South,189,8.0,21.0,44,0.00,,,0.00,Wunderground v.1.15,2013-02-16 06:39:00,
2013-02-15 23:45:00,27.8,8.7,22.63,South,191,7.0,21.0,44,0.00,,,0.00,Wunderground v.1.15,2013-02-16 06:45:00,
2013-02-15 23:47:00,27.9,8.8,22.63,West,259,8.0,21.0,44,0.00,,,0.00,Wunderground v.1.15,2013-02-16 06:47:00,
2013-02-15 23:51:00,27.9,8.8,22.64,WSW,255,7.0,21.0,44,0.00,,,0.00,Wunderground v.1.15,2013-02-16 06:51:00,
2013-02-15 23:57:00,27.8,8.7,22.63,WSW,240,7.0,21.0,44,0.00,,,0.00,Wunderground v.1.15,2013-02-16 06:57:00,